createdAt,value
2023-03-20T00:01:19.764Z,31.75
2023-03-20T00:06:25.600Z,35.22
2023-03-20T00:08:56.480Z,36.22
2023-03-20T00:11:36.065Z,35.38
2023-03-20T00:14:16.093Z,51.17
2023-03-20T00:16:48.988Z,41.03
2023-03-20T00:19:32.261Z,41.38
2023-03-20T00:22:02.872Z,38.53
2023-03-20T00:24:32.628Z,38.15
2023-03-20T00:27:03.697Z,38.92
2023-03-20T00:29:35.342Z,38.40
2023-03-20T00:32:04.593Z,38.38
2023-03-20T00:34:33.890Z,43.33
2023-03-20T00:37:03.744Z,40.50
2023-03-20T00:39:33.376Z,52.30
2023-03-20T00:42:08.988Z,39.88
2023-03-20T00:44:50.191Z,40.67
2023-03-20T00:47:25.435Z,47.17
2023-03-20T00:49:56.902Z,39.53
2023-03-20T00:52:26.354Z,40.38
2023-03-20T00:54:56.265Z,38.72
2023-03-20T00:57:50.702Z,44.53
2023-03-20T01:00:36.517Z,43.22
2023-03-20T01:03:19.496Z,41.17
2023-03-20T01:05:50.412Z,42.35
2023-03-20T01:08:30.069Z,39.30
2023-03-20T01:11:01.211Z,40.33
2023-03-20T01:13:34.032Z,39.58
2023-03-20T01:16:03.415Z,40.67
2023-03-20T01:18:32.686Z,43.90
2023-03-20T01:21:01.957Z,39.95
2023-03-20T01:23:31.352Z,41.90
2023-03-20T01:26:01.499Z,39.45
2023-03-20T01:28:32.621Z,40.50
2023-03-20T01:31:03.725Z,41.67
2023-03-20T01:33:37.742Z,41.80
2023-03-20T01:36:07.407Z,40.40
2023-03-20T01:38:39.940Z,40.60
2023-03-20T01:41:15.205Z,43.28
2023-03-20T01:43:47.869Z,43.78
2023-03-20T01:46:29.369Z,40.55
2023-03-20T01:49:29.939Z,42.55
2023-03-20T01:52:04.091Z,42.05
2023-03-20T01:54:41.293Z,40.65
2023-03-20T02:00:21.803Z,40.28
2023-03-20T02:02:54.368Z,40.17
2023-03-20T02:05:25.360Z,40.78
2023-03-20T02:08:43.736Z,40.10
2023-03-20T02:11:14.573Z,39.03
2023-03-20T02:13:45.342Z,39.25
2023-03-20T02:16:17.867Z,38.63
2023-03-20T02:18:52.545Z,39.00
2023-03-20T02:22:08.235Z,38.17
2023-03-20T02:25:56.938Z,39.03
2023-03-20T02:28:53.369Z,38.33
2023-03-20T02:32:30.900Z,37.63
2023-03-20T02:35:27.516Z,36.28
2023-03-20T02:38:01.904Z,34.78
2023-03-20T02:41:03.050Z,37.13
2023-03-20T02:44:02.362Z,36.75
2023-03-20T02:46:38.455Z,36.25
2023-03-20T02:49:32.801Z,33.85
2023-03-20T02:52:19.233Z,32.65
2023-03-20T02:55:14.563Z,32.65
2023-03-20T02:58:22.745Z,32.80
2023-03-20T03:01:38.473Z,32.53
2023-03-20T03:04:19.558Z,32.53
2023-03-20T03:06:56.788Z,33.22
2023-03-20T03:10:09.494Z,28.70
2023-03-20T03:12:45.893Z,29.17
2023-03-20T03:15:46.656Z,27.98
2023-03-20T03:18:25.534Z,28.65
2023-03-20T03:21:00.879Z,29.13
2023-03-20T03:23:50.904Z,31.48
2023-03-20T03:26:39.682Z,29.45
2023-03-20T03:29:20.738Z,30.40
2023-03-20T03:31:50.603Z,25.80
2023-03-20T03:34:23.398Z,25.30
2023-03-20T03:37:15.579Z,24.67
2023-03-20T03:40:13.759Z,25.48
2023-03-20T03:43:13.879Z,26.60
2023-03-20T03:45:59.483Z,26.88
2023-03-20T03:48:52.420Z,26.27
2023-03-20T03:51:30.406Z,26.30
2023-03-20T03:54:32.308Z,22.35
2023-03-20T03:57:03.624Z,23.23
2023-03-20T03:59:44.750Z,24.60
2023-03-20T04:02:15.813Z,24.75
2023-03-20T04:04:50.778Z,23.73
2023-03-20T04:07:20.116Z,23.67
2023-03-20T04:09:49.548Z,21.98
2023-03-20T04:12:44.393Z,23.35
2023-03-20T04:15:17.004Z,22.25
2023-03-20T04:17:47.110Z,23.25
2023-03-20T04:20:17.265Z,22.35
2023-03-20T04:22:46.552Z,20.92
2023-03-20T04:25:27.623Z,20.70
2023-03-20T04:27:57.044Z,20.98
2023-03-20T04:30:26.194Z,20.75
2023-03-20T04:32:55.482Z,20.75
2023-03-20T04:35:24.676Z,21.10
2023-03-20T04:37:53.856Z,21.25
2023-03-20T04:40:23.088Z,21.20
2023-03-20T04:42:52.304Z,21.60
2023-03-20T04:45:21.770Z,22.33
2023-03-20T04:47:50.892Z,21.83
2023-03-20T04:50:20.196Z,22.23
2023-03-20T04:52:49.328Z,23.13
2023-03-20T04:55:18.610Z,22.45
2023-03-20T04:57:47.986Z,22.42
2023-03-20T05:00:18.419Z,22.55
2023-03-20T05:02:48.165Z,22.85
2023-03-20T05:05:17.333Z,23.20
2023-03-20T05:07:46.541Z,23.15
2023-03-20T05:10:16.473Z,23.52
2023-03-20T05:12:46.157Z,22.33
2023-03-20T05:15:15.849Z,21.40
2023-03-20T05:17:45.125Z,20.95
2023-03-20T05:20:14.644Z,20.15
2023-03-20T05:22:46.563Z,20.73
2023-03-20T05:25:15.897Z,20.40
2023-03-20T05:27:47.758Z,23.48
2023-03-20T05:30:17.587Z,21.23
2023-03-20T05:32:47.168Z,22.10
2023-03-20T05:35:16.341Z,20.52
2023-03-20T05:37:45.567Z,21.15
2023-03-20T05:40:17.841Z,20.20
2023-03-20T05:42:47.765Z,20.63
2023-03-20T05:45:17.011Z,21.17
2023-03-20T05:47:46.436Z,20.80
2023-03-20T05:50:15.851Z,21.52
2023-03-20T05:52:47.487Z,21.08
2023-03-20T05:55:17.196Z,21.98
2023-03-20T05:57:46.682Z,21.65
2023-03-20T06:00:17.582Z,22.33
2023-03-20T06:02:47.785Z,21.30
2023-03-20T06:05:17.500Z,19.58
2023-03-20T06:07:47.518Z,20.63
2023-03-20T06:10:16.996Z,20.92
2023-03-20T06:12:46.791Z,21.95
2023-03-20T06:15:16.067Z,20.27
2023-03-20T06:17:45.315Z,19.35
2023-03-20T06:20:14.982Z,19.67
2023-03-20T06:22:44.209Z,20.48
2023-03-20T06:25:13.539Z,19.63
2023-03-20T06:27:42.796Z,19.75
2023-03-20T06:30:13.076Z,19.73
2023-03-20T06:32:42.587Z,19.55
2023-03-20T06:35:13.258Z,20.95
2023-03-20T06:37:42.974Z,19.55
2023-03-20T06:40:12.841Z,20.38
2023-03-20T06:42:42.170Z,21.42
2023-03-20T06:45:12.210Z,19.80
2023-03-20T06:47:41.798Z,20.50
2023-03-20T06:50:12.050Z,21.02
2023-03-20T06:52:41.862Z,20.65
2023-03-20T06:55:11.471Z,21.08
2023-03-20T06:57:41.434Z,21.40
2023-03-20T07:00:11.630Z,20.75
2023-03-20T07:02:41.307Z,19.63
2023-03-20T07:05:11.338Z,20.23
2023-03-20T07:07:40.550Z,20.63
2023-03-20T07:10:10.934Z,20.63
2023-03-20T07:12:40.712Z,19.98
2023-03-20T07:15:10.548Z,21.45
2023-03-20T07:17:39.647Z,19.50
2023-03-20T07:20:09.754Z,19.27
2023-03-20T07:22:39.458Z,18.48
2023-03-20T07:25:10.752Z,19.42
2023-03-20T07:27:39.928Z,19.27
2023-03-20T07:30:09.913Z,20.33
2023-03-20T07:32:39.096Z,18.95
2023-03-20T07:35:08.832Z,19.15
2023-03-20T07:37:37.953Z,18.35
2023-03-20T07:40:08.131Z,19.10
2023-03-20T07:42:37.643Z,17.67
2023-03-20T07:45:07.817Z,16.80
2023-03-20T07:47:37.532Z,18.48
2023-03-20T07:50:08.405Z,17.25
2023-03-20T07:52:37.737Z,17.60
2023-03-20T07:55:07.436Z,16.25
2023-03-20T07:57:36.628Z,16.58
2023-03-20T08:00:06.493Z,16.73
2023-03-20T08:02:35.651Z,16.92
2023-03-20T08:05:05.350Z,17.05
2023-03-20T08:07:34.567Z,16.60
2023-03-20T08:10:05.139Z,15.38
2023-03-20T08:12:34.266Z,18.10
2023-03-20T08:15:03.714Z,17.63
2023-03-20T08:17:32.929Z,17.35
2023-03-20T08:20:02.214Z,17.98
2023-03-20T08:22:31.556Z,18.25
2023-03-20T08:25:00.653Z,17.77
2023-03-20T08:27:29.807Z,17.55
2023-03-20T08:29:58.992Z,16.90
2023-03-20T08:32:28.623Z,17.00
2023-03-20T08:34:57.776Z,15.98
2023-03-20T08:37:26.948Z,16.42
2023-03-20T08:39:56.194Z,17.85
2023-03-20T08:42:25.324Z,16.20
2023-03-20T08:44:54.480Z,16.25
2023-03-20T08:47:23.804Z,16.67
2023-03-20T08:49:53.268Z,15.13
2023-03-20T08:52:22.371Z,16.02
2023-03-20T08:54:52.200Z,17.55
2023-03-20T08:57:21.366Z,17.58
2023-03-20T08:59:50.466Z,18.98
2023-03-20T09:02:19.691Z,18.67
2023-03-20T09:04:48.994Z,16.95
2023-03-20T09:07:18.157Z,18.73
2023-03-20T09:09:47.335Z,17.67
2023-03-20T09:12:16.777Z,18.52
2023-03-20T09:14:46.667Z,18.33
2023-03-20T09:17:15.836Z,18.15
2023-03-20T09:19:45.726Z,19.70
2023-03-20T09:22:20.779Z,17.75
2023-03-20T09:24:49.929Z,18.92
2023-03-20T09:27:19.187Z,19.13
2023-03-20T09:29:48.325Z,18.75
2023-03-20T09:32:17.926Z,18.50
2023-03-20T09:34:47.146Z,18.45
2023-03-20T09:37:16.572Z,19.98
2023-03-20T09:39:45.666Z,20.05
2023-03-20T09:42:47.633Z,19.17
2023-03-20T09:45:53.065Z,20.25
2023-03-20T09:48:47.055Z,20.20
2023-03-20T09:51:58.624Z,21.27
2023-03-20T09:54:52.586Z,20.15
2023-03-20T09:57:28.752Z,21.17
2023-03-20T10:00:05.417Z,20.25
2023-03-20T10:03:07.330Z,20.23
2023-03-20T10:05:58.170Z,18.85
2023-03-20T10:08:37.317Z,20.55
2023-03-20T10:11:21.773Z,19.90
2023-03-20T10:14:07.556Z,20.15
2023-03-20T10:17:06.252Z,20.98
2023-03-20T10:20:26.213Z,20.80
2023-03-20T10:23:07.463Z,21.00
2023-03-20T10:25:55.211Z,20.58
2023-03-20T10:31:25.289Z,20.70
2023-03-20T10:34:18.047Z,19.42
2023-03-20T10:37:17.037Z,21.52
2023-03-20T10:40:07.865Z,18.33
2023-03-20T10:42:43.642Z,17.45
2023-03-20T10:45:39.287Z,17.63
2023-03-20T10:48:46.858Z,19.38
2023-03-20T10:54:00.914Z,17.65
2023-03-20T10:56:50.658Z,18.13
2023-03-20T10:59:34.534Z,15.45
2023-03-20T11:02:03.682Z,17.23
2023-03-20T11:04:32.828Z,17.23
2023-03-20T11:07:29.923Z,18.58
2023-03-20T11:10:11.910Z,15.73
2023-03-20T11:12:51.033Z,15.63
2023-03-20T11:15:35.518Z,15.32
2023-03-20T11:18:14.938Z,15.80
2023-03-20T11:20:56.935Z,16.73
2023-03-20T11:23:39.462Z,16.05
2023-03-20T11:26:17.183Z,15.40
2023-03-20T11:29:09.137Z,17.15
2023-03-20T11:31:42.249Z,16.17
2023-03-20T11:34:13.846Z,17.00
2023-03-20T11:37:09.232Z,17.40
2023-03-20T11:39:41.042Z,15.82
2023-03-20T11:42:31.375Z,15.20
2023-03-20T11:45:08.256Z,16.08
2023-03-20T11:47:38.344Z,18.60
2023-03-20T11:50:29.045Z,16.95
2023-03-20T11:52:59.010Z,16.95
2023-03-20T11:55:36.476Z,16.75
2023-03-20T11:58:18.403Z,17.17
2023-03-20T12:00:52.650Z,16.63
2023-03-20T12:03:59.676Z,19.20
2023-03-20T12:06:41.778Z,17.45
2023-03-20T12:09:42.709Z,17.83
2023-03-20T12:12:42.129Z,17.85
2023-03-20T12:15:26.040Z,18.05
2023-03-20T12:18:27.081Z,18.25
2023-03-20T12:21:33.098Z,21.13
2023-03-20T12:24:14.916Z,25.48
2023-03-20T12:26:58.096Z,21.77
2023-03-20T12:30:22.895Z,19.58
2023-03-20T12:33:05.044Z,20.25
2023-03-20T12:35:42.709Z,19.30
2023-03-20T12:38:30.002Z,19.88
2023-03-20T12:41:19.240Z,19.05
2023-03-20T12:44:07.062Z,20.80
2023-03-20T12:46:49.056Z,20.10
2023-03-20T12:49:56.897Z,19.08
2023-03-20T12:52:54.110Z,19.40
2023-03-20T12:55:42.182Z,20.05
2023-03-20T12:58:51.006Z,18.75
2023-03-20T13:01:33.184Z,18.95
2023-03-20T13:04:29.662Z,17.30
2023-03-20T13:07:21.960Z,17.90
2023-03-20T13:10:32.903Z,17.65
2023-03-20T13:13:44.771Z,19.48
2023-03-20T13:16:24.459Z,18.80
2023-03-20T13:19:08.577Z,19.13
2023-03-20T13:22:15.744Z,18.85
2023-03-20T13:25:38.111Z,19.35
2023-03-20T13:28:44.189Z,24.50
2023-03-20T13:31:27.353Z,22.00
2023-03-20T13:34:35.155Z,22.65
2023-03-20T13:37:41.613Z,22.10
2023-03-20T13:40:24.743Z,21.02
2023-03-20T13:43:25.332Z,21.23
2023-03-20T13:46:08.205Z,22.40
2023-03-20T13:48:43.992Z,21.35
2023-03-20T13:51:33.544Z,21.33
2023-03-20T13:54:29.697Z,22.35
2023-03-20T13:57:26.644Z,23.00
2023-03-20T14:00:12.727Z,25.13
2023-03-20T14:03:17.162Z,24.42
2023-03-20T14:05:48.471Z,30.60
2023-03-20T14:08:33.466Z,30.98
2023-03-20T14:11:38.159Z,23.67
2023-03-20T14:14:55.781Z,23.48
2023-03-20T14:20:25.349Z,24.38
2023-03-20T14:22:59.555Z,22.80
2023-03-20T14:25:42.806Z,21.90
2023-03-20T14:28:14.749Z,22.25
2023-03-20T14:30:51.761Z,22.13
2023-03-20T14:33:24.029Z,22.83
2023-03-20T14:36:18.936Z,22.08
2023-03-20T14:39:34.865Z,22.65
2023-03-20T14:42:51.223Z,21.17
2023-03-20T14:45:39.183Z,20.60
2023-03-20T14:51:38.481Z,21.35
2023-03-20T14:54:31.769Z,21.00
2023-03-20T14:57:34.040Z,20.23
2023-03-20T15:00:18.483Z,20.10
2023-03-20T15:02:56.956Z,22.13
2023-03-20T15:05:33.953Z,20.83
2023-03-20T15:08:11.307Z,20.98
2023-03-20T15:11:00.692Z,22.17
2023-03-20T15:13:32.009Z,21.05
2023-03-20T15:16:13.665Z,21.42
2023-03-20T15:18:55.443Z,21.20
2023-03-20T15:21:46.289Z,20.95
2023-03-20T15:24:31.183Z,20.77
2023-03-20T15:27:03.660Z,20.38
2023-03-20T15:29:35.498Z,20.42
2023-03-20T15:32:14.361Z,20.75
2023-03-20T15:34:46.828Z,21.80
2023-03-20T15:37:25.194Z,20.02
2023-03-20T15:40:01.404Z,20.98
2023-03-20T15:42:33.907Z,20.63
2023-03-20T15:45:03.237Z,22.13
2023-03-20T15:47:33.141Z,20.40
2023-03-20T15:50:03.683Z,21.05
2023-03-20T15:52:44.796Z,21.05
2023-03-20T15:55:20.958Z,20.15
2023-03-20T15:57:53.584Z,20.45
2023-03-20T16:00:35.200Z,20.88
2023-03-20T16:03:09.861Z,19.80
2023-03-20T16:05:39.347Z,19.55
2023-03-20T16:08:29.848Z,20.33
2023-03-20T16:11:16.490Z,20.02
2023-03-20T16:13:49.651Z,19.55
2023-03-20T16:16:24.904Z,19.45
2023-03-20T16:18:54.460Z,20.30
2023-03-20T16:21:32.650Z,20.20
2023-03-20T16:26:46.832Z,19.35
2023-03-20T16:29:18.084Z,20.10
2023-03-20T16:31:58.631Z,18.70
2023-03-20T16:34:40.478Z,19.25
2023-03-20T16:37:32.538Z,18.70
2023-03-20T16:40:35.778Z,19.83
2023-03-20T16:43:25.435Z,19.00
2023-03-20T16:45:58.070Z,19.27
2023-03-20T16:48:40.171Z,18.45
2023-03-20T16:51:33.191Z,19.00
2023-03-20T16:54:03.323Z,19.42
2023-03-20T16:56:41.506Z,18.60
2023-03-20T17:01:52.605Z,19.15
2023-03-20T17:04:38.156Z,18.65
2023-03-20T17:07:24.989Z,19.00
2023-03-20T17:10:00.997Z,19.90
2023-03-20T17:12:33.983Z,19.25
2023-03-20T17:15:03.646Z,18.55
2023-03-20T17:17:32.820Z,20.25
2023-03-20T17:20:02.387Z,19.15
2023-03-20T17:22:31.758Z,19.20
2023-03-20T17:25:01.304Z,19.77
2023-03-20T17:27:31.857Z,20.52
2023-03-20T17:30:01.032Z,19.17
2023-03-20T17:32:30.597Z,20.00
2023-03-20T17:34:59.765Z,19.60
2023-03-20T17:37:31.647Z,20.90
2023-03-20T17:40:01.896Z,21.08
2023-03-20T17:42:32.500Z,20.63
2023-03-20T17:45:04.634Z,21.50
2023-03-20T17:47:33.955Z,21.67
2023-03-20T17:50:03.103Z,21.65
2023-03-20T17:52:32.608Z,20.88
2023-03-20T17:55:02.019Z,22.88
2023-03-20T17:57:40.586Z,22.60
2023-03-20T18:00:23.612Z,23.05
2023-03-20T18:02:53.517Z,23.13
2023-03-20T18:05:22.771Z,23.10
2023-03-20T18:07:54.704Z,23.27
2023-03-20T18:10:36.166Z,22.83
2023-03-20T18:13:09.230Z,22.75
2023-03-20T18:15:41.165Z,23.52
2023-03-20T18:18:10.713Z,23.08
2023-03-20T18:20:42.390Z,23.20
2023-03-20T18:23:12.695Z,22.88
2023-03-20T18:25:42.156Z,23.50
2023-03-20T18:28:23.629Z,24.40
2023-03-20T18:30:53.352Z,23.13
2023-03-20T18:33:28.665Z,24.40
2023-03-20T18:35:58.083Z,24.23
2023-03-20T18:38:29.065Z,24.38
2023-03-20T18:40:58.708Z,24.55
2023-03-20T18:43:27.914Z,24.52
2023-03-20T18:45:57.351Z,25.42
2023-03-20T18:48:28.310Z,24.38
2023-03-20T18:51:02.264Z,25.15
2023-03-20T18:53:32.181Z,25.27
2023-03-20T18:56:02.215Z,25.25
2023-03-20T18:58:32.662Z,25.17
2023-03-20T19:01:02.198Z,25.85
2023-03-20T19:03:31.491Z,25.52
2023-03-20T19:06:01.110Z,25.50
2023-03-20T19:08:31.124Z,25.08
2023-03-20T19:11:00.480Z,25.83
2023-03-20T19:13:29.866Z,25.95
2023-03-20T19:15:59.173Z,26.08
2023-03-20T19:18:29.558Z,25.30
2023-03-20T19:20:59.847Z,27.65
2023-03-20T19:23:32.661Z,25.33
2023-03-20T19:26:02.146Z,26.65
2023-03-20T19:28:40.472Z,28.08
2023-03-20T19:31:11.879Z,26.58
2023-03-20T19:33:42.054Z,27.60
2023-03-20T19:36:30.001Z,27.02
2023-03-20T19:39:01.978Z,26.77
2023-03-20T19:41:33.235Z,27.13
2023-03-20T19:44:02.559Z,27.38
2023-03-20T19:46:41.006Z,26.75
2023-03-20T19:49:30.529Z,27.13
2023-03-20T19:52:00.340Z,29.00
2023-03-20T19:54:29.661Z,28.80
2023-03-20T19:56:58.916Z,28.27
2023-03-20T19:59:29.642Z,27.33
2023-03-20T20:01:59.499Z,27.52
2023-03-20T20:04:29.409Z,27.77
2023-03-20T20:07:32.997Z,28.65
2023-03-20T20:09:48.090Z,28.15
2023-03-20T20:12:18.297Z,26.73
2023-03-20T20:14:48.046Z,27.15
2023-03-20T20:17:17.200Z,29.02
2023-03-20T20:19:46.449Z,27.42
2023-03-20T20:22:26.581Z,28.50
2023-03-20T20:24:56.174Z,28.05
2023-03-20T20:27:26.365Z,28.73
2023-03-20T20:29:56.398Z,28.40
2023-03-20T20:32:29.449Z,28.33
2023-03-20T20:40:37.875Z,27.75
2023-03-20T20:43:10.343Z,28.42
2023-03-20T20:45:40.909Z,30.20
2023-03-20T20:48:11.339Z,29.08
2023-03-20T20:50:44.222Z,28.85
2023-03-20T20:53:13.596Z,27.67
2023-03-20T20:55:42.804Z,26.83
2023-03-20T20:58:12.749Z,27.67
2023-03-20T21:00:51.667Z,29.20
2023-03-20T21:03:22.348Z,28.40
2023-03-20T21:05:52.401Z,29.13
2023-03-20T21:08:21.812Z,28.15
2023-03-20T21:10:51.830Z,30.20
2023-03-20T21:13:20.983Z,29.33
2023-03-20T21:15:59.484Z,30.00
2023-03-20T21:18:28.752Z,30.15
2023-03-20T21:21:10.906Z,30.00
2023-03-20T21:23:41.026Z,30.23
2023-03-20T21:26:10.980Z,29.70
2023-03-20T21:28:40.147Z,30.05
2023-03-20T21:31:23.843Z,29.33
2023-03-20T21:33:56.127Z,30.25
2023-03-20T21:36:25.666Z,29.10
2023-03-20T21:39:08.389Z,30.20
2023-03-20T21:41:41.459Z,30.23
2023-03-20T21:44:16.592Z,31.20
2023-03-20T21:53:00.366Z,30.60
2023-03-20T21:58:41.347Z,31.50
2023-03-20T22:01:39.685Z,29.23
2023-03-20T22:08:26.969Z,30.13
2023-03-20T22:11:56.385Z,31.15
2023-03-20T22:14:19.116Z,29.38
2023-03-20T22:17:19.843Z,30.48
2023-03-20T22:22:42.430Z,31.10
2023-03-20T22:25:28.302Z,33.20
2023-03-20T22:28:09.171Z,31.52
2023-03-20T22:31:17.316Z,33.67
2023-03-20T22:47:19.524Z,37.03
2023-03-20T22:49:48.830Z,36.33
2023-03-20T22:52:31.819Z,36.53
2023-03-20T22:55:08.155Z,36.38
2023-03-20T22:57:45.472Z,36.70
2023-03-20T23:00:22.860Z,37.17
2023-03-20T23:02:54.930Z,36.47
2023-03-20T23:05:26.789Z,35.75
2023-03-20T23:07:57.104Z,32.53
2023-03-20T23:10:26.385Z,33.28
2023-03-20T23:12:55.898Z,33.78
2023-03-20T23:15:26.040Z,32.08
2023-03-20T23:17:55.391Z,31.30
2023-03-20T23:20:24.978Z,31.65
2023-03-20T23:22:55.426Z,32.65
2023-03-20T23:25:38.313Z,33.85
2023-03-20T23:28:10.785Z,33.35
2023-03-20T23:30:47.995Z,32.42
2023-03-20T23:33:23.409Z,31.83
2023-03-20T23:36:12.477Z,32.60
2023-03-20T23:38:45.927Z,35.03
2023-03-20T23:41:16.025Z,34.95
2023-03-20T23:43:45.342Z,35.20
2023-03-20T23:46:15.036Z,33.42
2023-03-20T23:48:44.342Z,39.60
2023-03-20T23:51:13.563Z,35.58
2023-03-20T23:53:42.884Z,39.47
2023-03-20T23:56:14.250Z,40.83
2023-03-20T23:58:54.986Z,43.92
